sensor_id;sensor_type;location;lat;lon;timestamp;P1;durP1;ratioP1;P2;durP2;ratioP2
36411;SDS011;22445;52.100;5.176;2023-04-24T00:00:13;2.25;;;2.05;;
36411;SDS011;22445;52.100;5.176;2023-04-24T00:02:40;4.47;;;2.55;;
36411;SDS011;22445;52.100;5.176;2023-04-24T00:05:09;4.05;;;1.98;;
36411;SDS011;22445;52.100;5.176;2023-04-24T00:07:35;4.10;;;1.92;;
36411;SDS011;22445;52.100;5.176;2023-04-24T00:10:01;2.00;;;1.73;;
36411;SDS011;22445;52.100;5.176;2023-04-24T00:12:26;3.65;;;2.08;;
36411;SDS011;22445;52.100;5.176;2023-04-24T00:14:52;3.40;;;2.75;;
36411;SDS011;22445;52.100;5.176;2023-04-24T00:17:18;5.20;;;4.53;;
36411;SDS011;22445;52.100;5.176;2023-04-24T00:19:47;5.63;;;5.00;;
36411;SDS011;22445;52.100;5.176;2023-04-24T00:22:13;7.03;;;5.22;;
36411;SDS011;22445;52.100;5.176;2023-04-24T00:24:40;5.13;;;4.40;;
36411;SDS011;22445;52.100;5.176;2023-04-24T00:27:05;6.30;;;5.00;;
36411;SDS011;22445;52.100;5.176;2023-04-24T00:29:31;5.82;;;4.53;;
36411;SDS011;22445;52.100;5.176;2023-04-24T00:31:56;4.85;;;4.25;;
36411;SDS011;22445;52.100;5.176;2023-04-24T00:34:22;6.32;;;5.00;;
36411;SDS011;22445;52.100;5.176;2023-04-24T00:36:48;7.60;;;5.72;;
36411;SDS011;22445;52.100;5.176;2023-04-24T00:39:17;6.40;;;5.55;;
36411;SDS011;22445;52.100;5.176;2023-04-24T00:41:43;7.47;;;6.28;;
36411;SDS011;22445;52.100;5.176;2023-04-24T00:44:10;7.10;;;5.90;;
36411;SDS011;22445;52.100;5.176;2023-04-24T00:46:36;7.20;;;5.97;;
36411;SDS011;22445;52.100;5.176;2023-04-24T00:49:02;6.25;;;5.65;;
36411;SDS011;22445;52.100;5.176;2023-04-24T00:51:28;8.30;;;6.88;;
36411;SDS011;22445;52.100;5.176;2023-04-24T00:53:53;7.60;;;6.60;;
36411;SDS011;22445;52.100;5.176;2023-04-24T00:56:19;8.25;;;6.82;;
36411;SDS011;22445;52.100;5.176;2023-04-24T00:58:45;9.25;;;6.78;;
36411;SDS011;22445;52.100;5.176;2023-04-24T01:01:10;8.32;;;6.88;;
36411;SDS011;22445;52.100;5.176;2023-04-24T01:03:36;8.52;;;7.50;;
36411;SDS011;22445;52.100;5.176;2023-04-24T01:06:03;10.88;;;7.63;;
36411;SDS011;22445;52.100;5.176;2023-04-24T01:08:29;8.60;;;7.63;;
36411;SDS011;22445;52.100;5.176;2023-04-24T01:10:55;9.00;;;7.75;;
36411;SDS011;22445;52.100;5.176;2023-04-24T01:13:22;13.07;;;8.45;;
36411;SDS011;22445;52.100;5.176;2023-04-24T01:15:47;12.30;;;8.63;;
36411;SDS011;22445;52.100;5.176;2023-04-24T01:18:13;11.43;;;9.20;;
36411;SDS011;22445;52.100;5.176;2023-04-24T01:20:40;10.48;;;8.77;;
36411;SDS011;22445;52.100;5.176;2023-04-24T01:23:06;11.45;;;9.00;;
36411;SDS011;22445;52.100;5.176;2023-04-24T01:25:32;13.90;;;9.38;;
36411;SDS011;22445;52.100;5.176;2023-04-24T01:27:59;13.13;;;9.57;;
36411;SDS011;22445;52.100;5.176;2023-04-24T01:30:25;13.02;;;10.25;;
36411;SDS011;22445;52.100;5.176;2023-04-24T01:32:51;15.90;;;11.43;;
36411;SDS011;22445;52.100;5.176;2023-04-24T01:35:17;15.35;;;11.18;;
36411;SDS011;22445;52.100;5.176;2023-04-24T01:37:43;15.70;;;10.43;;
36411;SDS011;22445;52.100;5.176;2023-04-24T01:40:09;13.98;;;10.55;;
36411;SDS011;22445;52.100;5.176;2023-04-24T01:42:35;12.18;;;9.32;;
36411;SDS011;22445;52.100;5.176;2023-04-24T01:45:05;10.52;;;9.10;;
36411;SDS011;22445;52.100;5.176;2023-04-24T01:47:34;17.67;;;10.35;;
36411;SDS011;22445;52.100;5.176;2023-04-24T01:50:00;13.43;;;8.90;;
36411;SDS011;22445;52.100;5.176;2023-04-24T01:52:26;12.48;;;10.10;;
36411;SDS011;22445;52.100;5.176;2023-04-24T01:54:52;11.98;;;10.07;;
36411;SDS011;22445;52.100;5.176;2023-04-24T01:57:18;11.43;;;8.23;;
36411;SDS011;22445;52.100;5.176;2023-04-24T01:59:43;10.38;;;8.85;;
36411;SDS011;22445;52.100;5.176;2023-04-24T02:02:09;9.20;;;7.80;;
36411;SDS011;22445;52.100;5.176;2023-04-24T02:04:35;10.27;;;8.50;;
36411;SDS011;22445;52.100;5.176;2023-04-24T02:07:01;10.63;;;8.55;;
36411;SDS011;22445;52.100;5.176;2023-04-24T02:09:27;11.18;;;8.38;;
36411;SDS011;22445;52.100;5.176;2023-04-24T02:11:53;10.55;;;7.65;;
36411;SDS011;22445;52.100;5.176;2023-04-24T02:14:19;12.35;;;8.02;;
36411;SDS011;22445;52.100;5.176;2023-04-24T02:16:44;8.80;;;6.93;;
36411;SDS011;22445;52.100;5.176;2023-04-24T02:19:10;11.98;;;7.82;;
36411;SDS011;22445;52.100;5.176;2023-04-24T02:21:36;13.38;;;8.48;;
36411;SDS011;22445;52.100;5.176;2023-04-24T02:24:01;9.02;;;6.65;;
36411;SDS011;22445;52.100;5.176;2023-04-24T02:26:27;13.32;;;7.68;;
36411;SDS011;22445;52.100;5.176;2023-04-24T02:28:53;9.73;;;6.65;;
36411;SDS011;22445;52.100;5.176;2023-04-24T02:31:18;11.25;;;7.85;;
36411;SDS011;22445;52.100;5.176;2023-04-24T02:33:44;11.25;;;7.07;;
36411;SDS011;22445;52.100;5.176;2023-04-24T02:36:10;14.02;;;7.47;;
36411;SDS011;22445;52.100;5.176;2023-04-24T02:38:35;11.38;;;7.00;;
36411;SDS011;22445;52.100;5.176;2023-04-24T02:41:01;12.38;;;7.05;;
36411;SDS011;22445;52.100;5.176;2023-04-24T02:43:27;9.57;;;7.07;;
36411;SDS011;22445;52.100;5.176;2023-04-24T02:45:54;10.75;;;6.95;;
36411;SDS011;22445;52.100;5.176;2023-04-24T02:48:20;10.40;;;6.93;;
36411;SDS011;22445;52.100;5.176;2023-04-24T02:50:46;11.20;;;7.22;;
36411;SDS011;22445;52.100;5.176;2023-04-24T02:53:11;8.80;;;6.47;;
36411;SDS011;22445;52.100;5.176;2023-04-24T02:55:37;10.48;;;6.68;;
36411;SDS011;22445;52.100;5.176;2023-04-24T02:58:02;8.52;;;6.55;;
36411;SDS011;22445;52.100;5.176;2023-04-24T03:00:28;10.43;;;7.07;;
36411;SDS011;22445;52.100;5.176;2023-04-24T03:02:54;12.65;;;7.78;;
36411;SDS011;22445;52.100;5.176;2023-04-24T03:05:20;12.75;;;7.65;;
36411;SDS011;22445;52.100;5.176;2023-04-24T03:07:45;13.35;;;7.90;;
36411;SDS011;22445;52.100;5.176;2023-04-24T03:10:11;11.18;;;8.15;;
36411;SDS011;22445;52.100;5.176;2023-04-24T03:15:31;13.48;;;8.05;;
36411;SDS011;22445;52.100;5.176;2023-04-24T03:17:57;14.82;;;8.60;;
36411;SDS011;22445;52.100;5.176;2023-04-24T03:20:22;13.30;;;8.30;;
36411;SDS011;22445;52.100;5.176;2023-04-24T03:22:48;12.27;;;8.50;;
36411;SDS011;22445;52.100;5.176;2023-04-24T03:25:14;15.05;;;9.77;;
36411;SDS011;22445;52.100;5.176;2023-04-24T03:27:39;12.90;;;9.20;;
36411;SDS011;22445;52.100;5.176;2023-04-24T03:30:06;13.88;;;9.18;;
36411;SDS011;22445;52.100;5.176;2023-04-24T03:32:33;14.88;;;9.07;;
36411;SDS011;22445;52.100;5.176;2023-04-24T03:34:58;13.73;;;9.75;;
36411;SDS011;22445;52.100;5.176;2023-04-24T03:37:24;14.85;;;8.05;;
36411;SDS011;22445;52.100;5.176;2023-04-24T03:39:50;12.00;;;7.72;;
36411;SDS011;22445;52.100;5.176;2023-04-24T03:42:16;11.02;;;7.30;;
36411;SDS011;22445;52.100;5.176;2023-04-24T03:44:41;10.63;;;7.20;;
36411;SDS011;22445;52.100;5.176;2023-04-24T03:47:07;14.13;;;8.02;;
36411;SDS011;22445;52.100;5.176;2023-04-24T03:49:32;12.10;;;6.95;;
36411;SDS011;22445;52.100;5.176;2023-04-24T03:51:58;13.15;;;7.75;;
36411;SDS011;22445;52.100;5.176;2023-04-24T03:54:23;8.23;;;5.00;;
36411;SDS011;22445;52.100;5.176;2023-04-24T03:56:49;9.88;;;5.28;;
36411;SDS011;22445;52.100;5.176;2023-04-24T03:59:15;11.68;;;6.65;;
36411;SDS011;22445;52.100;5.176;2023-04-24T04:01:40;10.00;;;5.80;;
36411;SDS011;22445;52.100;5.176;2023-04-24T04:04:06;8.07;;;5.25;;
36411;SDS011;22445;52.100;5.176;2023-04-24T04:06:33;10.35;;;6.75;;
36411;SDS011;22445;52.100;5.176;2023-04-24T04:08:58;10.68;;;6.15;;
36411;SDS011;22445;52.100;5.176;2023-04-24T04:11:24;7.25;;;5.35;;
36411;SDS011;22445;52.100;5.176;2023-04-24T04:13:50;9.95;;;6.10;;
36411;SDS011;22445;52.100;5.176;2023-04-24T04:16:15;10.48;;;6.22;;
36411;SDS011;22445;52.100;5.176;2023-04-24T04:18:42;8.77;;;5.57;;
36411;SDS011;22445;52.100;5.176;2023-04-24T04:21:08;9.57;;;6.25;;
36411;SDS011;22445;52.100;5.176;2023-04-24T04:23:34;11.27;;;6.38;;
36411;SDS011;22445;52.100;5.176;2023-04-24T04:26:00;9.25;;;6.20;;
36411;SDS011;22445;52.100;5.176;2023-04-24T04:28:26;9.00;;;6.07;;
36411;SDS011;22445;52.100;5.176;2023-04-24T04:30:51;9.85;;;6.40;;
36411;SDS011;22445;52.100;5.176;2023-04-24T04:33:20;9.60;;;6.22;;
36411;SDS011;22445;52.100;5.176;2023-04-24T04:35:46;9.45;;;6.13;;
36411;SDS011;22445;52.100;5.176;2023-04-24T04:38:14;10.30;;;6.45;;
36411;SDS011;22445;52.100;5.176;2023-04-24T04:40:40;11.13;;;6.68;;
36411;SDS011;22445;52.100;5.176;2023-04-24T04:43:06;10.95;;;6.93;;
36411;SDS011;22445;52.100;5.176;2023-04-24T04:45:32;11.80;;;7.20;;
36411;SDS011;22445;52.100;5.176;2023-04-24T04:47:59;11.98;;;7.32;;
36411;SDS011;22445;52.100;5.176;2023-04-24T04:50:27;10.27;;;6.70;;
36411;SDS011;22445;52.100;5.176;2023-04-24T04:52:52;14.32;;;7.57;;
36411;SDS011;22445;52.100;5.176;2023-04-24T04:55:18;13.95;;;7.57;;
36411;SDS011;22445;52.100;5.176;2023-04-24T04:57:45;12.52;;;7.78;;
36411;SDS011;22445;52.100;5.176;2023-04-24T05:00:13;11.95;;;7.35;;
36411;SDS011;22445;52.100;5.176;2023-04-24T05:02:40;11.48;;;7.45;;
36411;SDS011;22445;52.100;5.176;2023-04-24T05:05:06;13.23;;;7.60;;
36411;SDS011;22445;52.100;5.176;2023-04-24T05:07:32;14.20;;;7.40;;
36411;SDS011;22445;52.100;5.176;2023-04-24T05:09:58;13.63;;;6.60;;
36411;SDS011;22445;52.100;5.176;2023-04-24T05:12:24;11.57;;;7.05;;
36411;SDS011;22445;52.100;5.176;2023-04-24T05:14:50;11.43;;;7.13;;
36411;SDS011;22445;52.100;5.176;2023-04-24T05:17:15;10.27;;;6.07;;
36411;SDS011;22445;52.100;5.176;2023-04-24T05:19:41;11.05;;;5.53;;
36411;SDS011;22445;52.100;5.176;2023-04-24T05:22:07;7.03;;;3.80;;
36411;SDS011;22445;52.100;5.176;2023-04-24T05:24:33;5.53;;;3.70;;
36411;SDS011;22445;52.100;5.176;2023-04-24T05:26:59;3.53;;;2.30;;
36411;SDS011;22445;52.100;5.176;2023-04-24T05:29:24;3.28;;;2.22;;
36411;SDS011;22445;52.100;5.176;2023-04-24T05:31:51;3.38;;;1.88;;
36411;SDS011;22445;52.100;5.176;2023-04-24T05:34:17;2.30;;;1.70;;
36411;SDS011;22445;52.100;5.176;2023-04-24T05:36:43;2.38;;;1.48;;
36411;SDS011;22445;52.100;5.176;2023-04-24T05:39:08;3.30;;;1.52;;
36411;SDS011;22445;52.100;5.176;2023-04-24T05:41:34;2.88;;;0.88;;
36411;SDS011;22445;52.100;5.176;2023-04-24T05:44:00;1.70;;;0.88;;
36411;SDS011;22445;52.100;5.176;2023-04-24T05:46:25;1.23;;;0.60;;
36411;SDS011;22445;52.100;5.176;2023-04-24T05:48:51;2.15;;;0.50;;
36411;SDS011;22445;52.100;5.176;2023-04-24T05:51:17;0.85;;;0.68;;
36411;SDS011;22445;52.100;5.176;2023-04-24T05:53:42;1.27;;;0.77;;
36411;SDS011;22445;52.100;5.176;2023-04-24T05:56:08;2.35;;;0.50;;
36411;SDS011;22445;52.100;5.176;2023-04-24T05:58:33;1.02;;;0.68;;
36411;SDS011;22445;52.100;5.176;2023-04-24T06:00:59;2.15;;;0.98;;
36411;SDS011;22445;52.100;5.176;2023-04-24T06:03:26;3.92;;;1.45;;
36411;SDS011;22445;52.100;5.176;2023-04-24T06:05:52;1.75;;;1.27;;
36411;SDS011;22445;52.100;5.176;2023-04-24T06:08:18;3.80;;;1.40;;
36411;SDS011;22445;52.100;5.176;2023-04-24T06:10:44;1.60;;;1.40;;
36411;SDS011;22445;52.100;5.176;2023-04-24T06:13:10;2.47;;;1.80;;
36411;SDS011;22445;52.100;5.176;2023-04-24T06:15:36;3.13;;;1.95;;
36411;SDS011;22445;52.100;5.176;2023-04-24T06:18:02;4.25;;;2.67;;
36411;SDS011;22445;52.100;5.176;2023-04-24T06:20:28;5.47;;;3.67;;
36411;SDS011;22445;52.100;5.176;2023-04-24T06:22:53;11.98;;;5.35;;
36411;SDS011;22445;52.100;5.176;2023-04-24T06:25:19;9.38;;;6.45;;
36411;SDS011;22445;52.100;5.176;2023-04-24T06:27:45;14.65;;;9.68;;
36411;SDS011;22445;52.100;5.176;2023-04-24T06:30:11;16.63;;;9.88;;
36411;SDS011;22445;52.100;5.176;2023-04-24T06:32:36;20.67;;;11.73;;
36411;SDS011;22445;52.100;5.176;2023-04-24T06:35:02;20.70;;;12.35;;
36411;SDS011;22445;52.100;5.176;2023-04-24T06:37:29;23.10;;;13.98;;
36411;SDS011;22445;52.100;5.176;2023-04-24T06:39:54;24.80;;;14.80;;
36411;SDS011;22445;52.100;5.176;2023-04-24T06:42:20;24.63;;;14.75;;
36411;SDS011;22445;52.100;5.176;2023-04-24T06:44:47;21.05;;;14.10;;
36411;SDS011;22445;52.100;5.176;2023-04-24T06:47:12;32.08;;;15.85;;
36411;SDS011;22445;52.100;5.176;2023-04-24T06:49:41;29.95;;;16.40;;
36411;SDS011;22445;52.100;5.176;2023-04-24T06:52:07;32.53;;;18.25;;
36411;SDS011;22445;52.100;5.176;2023-04-24T06:54:33;34.08;;;17.30;;
36411;SDS011;22445;52.100;5.176;2023-04-24T06:56:59;31.80;;;18.40;;
36411;SDS011;22445;52.100;5.176;2023-04-24T06:59:26;30.33;;;17.35;;
36411;SDS011;22445;52.100;5.176;2023-04-24T07:01:52;29.15;;;16.00;;
36411;SDS011;22445;52.100;5.176;2023-04-24T07:04:17;31.38;;;16.30;;
36411;SDS011;22445;52.100;5.176;2023-04-24T07:06:47;23.58;;;15.93;;
36411;SDS011;22445;52.100;5.176;2023-04-24T07:09:14;27.30;;;15.90;;
36411;SDS011;22445;52.100;5.176;2023-04-24T07:11:41;26.65;;;16.83;;
36411;SDS011;22445;52.100;5.176;2023-04-24T07:14:07;24.60;;;15.50;;
36411;SDS011;22445;52.100;5.176;2023-04-24T07:16:32;26.00;;;15.80;;
36411;SDS011;22445;52.100;5.176;2023-04-24T07:21:33;28.98;;;14.20;;
36411;SDS011;22445;52.100;5.176;2023-04-24T07:23:59;31.63;;;14.95;;
36411;SDS011;22445;52.100;5.176;2023-04-24T07:26:25;31.08;;;15.05;;
36411;SDS011;22445;52.100;5.176;2023-04-24T07:28:52;33.03;;;15.65;;
36411;SDS011;22445;52.100;5.176;2023-04-24T07:31:17;27.55;;;14.68;;
36411;SDS011;22445;52.100;5.176;2023-04-24T07:33:43;25.80;;;12.57;;
36411;SDS011;22445;52.100;5.176;2023-04-24T07:36:09;26.42;;;13.18;;
36411;SDS011;22445;52.100;5.176;2023-04-24T07:38:41;25.30;;;12.85;;
36411;SDS011;22445;52.100;5.176;2023-04-24T07:41:07;30.08;;;13.20;;
36411;SDS011;22445;52.100;5.176;2023-04-24T07:43:32;28.10;;;12.02;;
36411;SDS011;22445;52.100;5.176;2023-04-24T07:45:58;27.20;;;12.50;;
36411;SDS011;22445;52.100;5.176;2023-04-24T07:48:24;24.45;;;10.90;;
36411;SDS011;22445;52.100;5.176;2023-04-24T07:50:51;31.33;;;11.77;;
36411;SDS011;22445;52.100;5.176;2023-04-24T07:53:17;27.63;;;9.52;;
36411;SDS011;22445;52.100;5.176;2023-04-24T07:55:43;32.13;;;9.68;;
36411;SDS011;22445;52.100;5.176;2023-04-24T07:58:08;24.85;;;10.25;;
36411;SDS011;22445;52.100;5.176;2023-04-24T08:00:34;25.13;;;8.93;;
36411;SDS011;22445;52.100;5.176;2023-04-24T08:03:00;18.02;;;7.43;;
36411;SDS011;22445;52.100;5.176;2023-04-24T08:05:25;21.15;;;8.07;;
36411;SDS011;22445;52.100;5.176;2023-04-24T08:07:53;20.38;;;7.22;;
36411;SDS011;22445;52.100;5.176;2023-04-24T08:10:20;21.73;;;7.22;;
36411;SDS011;22445;52.100;5.176;2023-04-24T08:12:46;21.52;;;6.15;;
36411;SDS011;22445;52.100;5.176;2023-04-24T08:15:12;14.27;;;6.65;;
36411;SDS011;22445;52.100;5.176;2023-04-24T08:17:37;18.30;;;5.78;;
36411;SDS011;22445;52.100;5.176;2023-04-24T08:20:03;19.88;;;5.60;;
36411;SDS011;22445;52.100;5.176;2023-04-24T08:22:30;14.57;;;4.95;;
36411;SDS011;22445;52.100;5.176;2023-04-24T08:24:56;21.52;;;4.75;;
36411;SDS011;22445;52.100;5.176;2023-04-24T08:27:25;22.75;;;4.75;;
36411;SDS011;22445;52.100;5.176;2023-04-24T08:29:52;14.63;;;4.03;;
36411;SDS011;22445;52.100;5.176;2023-04-24T08:32:19;12.55;;;3.92;;
36411;SDS011;22445;52.100;5.176;2023-04-24T08:34:44;13.80;;;3.78;;
36411;SDS011;22445;52.100;5.176;2023-04-24T08:37:10;13.90;;;3.22;;
36411;SDS011;22445;52.100;5.176;2023-04-24T08:39:36;11.35;;;3.42;;
36411;SDS011;22445;52.100;5.176;2023-04-24T08:42:02;11.13;;;3.20;;
36411;SDS011;22445;52.100;5.176;2023-04-24T08:44:33;10.50;;;2.75;;
36411;SDS011;22445;52.100;5.176;2023-04-24T08:47:01;15.05;;;3.15;;
36411;SDS011;22445;52.100;5.176;2023-04-24T08:49:27;11.07;;;2.90;;
36411;SDS011;22445;52.100;5.176;2023-04-24T08:51:53;14.90;;;3.22;;
36411;SDS011;22445;52.100;5.176;2023-04-24T08:54:19;11.32;;;2.65;;
36411;SDS011;22445;52.100;5.176;2023-04-24T08:56:45;6.68;;;2.75;;
36411;SDS011;22445;52.100;5.176;2023-04-24T08:59:14;16.85;;;3.35;;
36411;SDS011;22445;52.100;5.176;2023-04-24T09:01:40;9.90;;;2.75;;
36411;SDS011;22445;52.100;5.176;2023-04-24T09:04:07;7.40;;;2.42;;
36411;SDS011;22445;52.100;5.176;2023-04-24T09:06:37;14.98;;;3.25;;
36411;SDS011;22445;52.100;5.176;2023-04-24T09:09:03;9.98;;;2.55;;
36411;SDS011;22445;52.100;5.176;2023-04-24T09:11:31;14.98;;;2.70;;
36411;SDS011;22445;52.100;5.176;2023-04-24T09:13:57;6.90;;;2.47;;
36411;SDS011;22445;52.100;5.176;2023-04-24T09:16:24;11.15;;;2.15;;
36411;SDS011;22445;52.100;5.176;2023-04-24T09:18:51;7.93;;;2.25;;
36411;SDS011;22445;52.100;5.176;2023-04-24T09:21:17;8.70;;;2.10;;
36411;SDS011;22445;52.100;5.176;2023-04-24T09:23:43;7.13;;;2.08;;
36411;SDS011;22445;52.100;5.176;2023-04-24T09:26:09;7.47;;;2.05;;
36411;SDS011;22445;52.100;5.176;2023-04-24T09:28:37;8.85;;;1.70;;
36411;SDS011;22445;52.100;5.176;2023-04-24T09:31:05;7.70;;;2.00;;
36411;SDS011;22445;52.100;5.176;2023-04-24T09:33:32;7.75;;;2.13;;
36411;SDS011;22445;52.100;5.176;2023-04-24T09:35:58;7.07;;;1.77;;
36411;SDS011;22445;52.100;5.176;2023-04-24T09:38:31;8.82;;;2.10;;
36411;SDS011;22445;52.100;5.176;2023-04-24T09:41:05;12.20;;;2.45;;
36411;SDS011;22445;52.100;5.176;2023-04-24T09:43:32;5.47;;;1.70;;
36411;SDS011;22445;52.100;5.176;2023-04-24T09:45:59;7.40;;;2.50;;
36411;SDS011;22445;52.100;5.176;2023-04-24T09:48:33;5.78;;;1.60;;
36411;SDS011;22445;52.100;5.176;2023-04-24T09:51:02;8.77;;;1.90;;
36411;SDS011;22445;52.100;5.176;2023-04-24T09:53:29;2.90;;;1.20;;
36411;SDS011;22445;52.100;5.176;2023-04-24T09:55:56;6.05;;;1.30;;
36411;SDS011;22445;52.100;5.176;2023-04-24T09:58:27;3.63;;;1.20;;
36411;SDS011;22445;52.100;5.176;2023-04-24T10:00:54;7.80;;;1.45;;
36411;SDS011;22445;52.100;5.176;2023-04-24T10:03:23;6.40;;;1.63;;
36411;SDS011;22445;52.100;5.176;2023-04-24T10:05:51;9.18;;;2.22;;
36411;SDS011;22445;52.100;5.176;2023-04-24T10:08:16;8.85;;;1.60;;
36411;SDS011;22445;52.100;5.176;2023-04-24T10:10:45;6.90;;;1.73;;
36411;SDS011;22445;52.100;5.176;2023-04-24T10:13:14;6.28;;;1.20;;
36411;SDS011;22445;52.100;5.176;2023-04-24T10:15:42;4.35;;;1.25;;
36411;SDS011;22445;52.100;5.176;2023-04-24T10:18:09;2.67;;;0.95;;
36411;SDS011;22445;52.100;5.176;2023-04-24T10:20:36;3.45;;;0.95;;
36411;SDS011;22445;52.100;5.176;2023-04-24T10:23:03;3.88;;;0.98;;
36411;SDS011;22445;52.100;5.176;2023-04-24T10:25:30;3.33;;;0.70;;
36411;SDS011;22445;52.100;5.176;2023-04-24T10:27:58;4.07;;;0.70;;
36411;SDS011;22445;52.100;5.176;2023-04-24T10:30:25;1.65;;;0.60;;
36411;SDS011;22445;52.100;5.176;2023-04-24T10:32:52;3.63;;;0.60;;
36411;SDS011;22445;52.100;5.176;2023-04-24T10:35:18;1.23;;;0.55;;
36411;SDS011;22445;52.100;5.176;2023-04-24T10:37:57;4.93;;;0.60;;
36411;SDS011;22445;52.100;5.176;2023-04-24T10:40:27;2.92;;;0.75;;
36411;SDS011;22445;52.100;5.176;2023-04-24T10:45:23;3.20;;;0.60;;
36411;SDS011;22445;52.100;5.176;2023-04-24T10:53:23;1.40;;;0.30;;
36411;SDS011;22445;52.100;5.176;2023-04-24T10:56:06;4.43;;;0.70;;
36411;SDS011;22445;52.100;5.176;2023-04-24T10:58:50;3.28;;;0.70;;
36411;SDS011;22445;52.100;5.176;2023-04-24T11:01:32;4.88;;;0.85;;
36411;SDS011;22445;52.100;5.176;2023-04-24T11:03:59;3.25;;;0.50;;
36411;SDS011;22445;52.100;5.176;2023-04-24T11:06:31;5.88;;;0.80;;
36411;SDS011;22445;52.100;5.176;2023-04-24T11:09:07;2.92;;;0.90;;
36411;SDS011;22445;52.100;5.176;2023-04-24T11:11:35;5.10;;;0.95;;
36411;SDS011;22445;52.100;5.176;2023-04-24T11:14:03;3.85;;;0.77;;
36411;SDS011;22445;52.100;5.176;2023-04-24T11:16:35;2.85;;;0.95;;
36411;SDS011;22445;52.100;5.176;2023-04-24T11:19:04;8.98;;;1.42;;
36411;SDS011;22445;52.100;5.176;2023-04-24T11:21:54;8.65;;;1.20;;
36411;SDS011;22445;52.100;5.176;2023-04-24T11:24:29;5.65;;;0.90;;
36411;SDS011;22445;52.100;5.176;2023-04-24T11:27:06;6.85;;;1.15;;
36411;SDS011;22445;52.100;5.176;2023-04-24T11:29:44;5.38;;;1.05;;
36411;SDS011;22445;52.100;5.176;2023-04-24T11:32:18;7.78;;;1.80;;
36411;SDS011;22445;52.100;5.176;2023-04-24T11:34:49;0.85;;;0.30;;
36411;SDS011;22445;52.100;5.176;2023-04-24T11:37:16;1.27;;;0.28;;
36411;SDS011;22445;52.100;5.176;2023-04-24T11:39:42;2.03;;;0.30;;
36411;SDS011;22445;52.100;5.176;2023-04-24T11:42:12;1.58;;;0.40;;
36411;SDS011;22445;52.100;5.176;2023-04-24T11:44:41;1.27;;;0.40;;
36411;SDS011;22445;52.100;5.176;2023-04-24T11:47:07;2.45;;;0.98;;
36411;SDS011;22445;52.100;5.176;2023-04-24T11:49:33;3.17;;;0.52;;
36411;SDS011;22445;52.100;5.176;2023-04-24T11:52:02;1.27;;;0.43;;
36411;SDS011;22445;52.100;5.176;2023-04-24T11:54:28;0.98;;;0.40;;
36411;SDS011;22445;52.100;5.176;2023-04-24T11:56:53;2.08;;;0.43;;
36411;SDS011;22445;52.100;5.176;2023-04-24T11:59:19;5.50;;;0.47;;
36411;SDS011;22445;52.100;5.176;2023-04-24T12:01:45;3.40;;;1.08;;
36411;SDS011;22445;52.100;5.176;2023-04-24T12:04:11;3.05;;;0.57;;
36411;SDS011;22445;52.100;5.176;2023-04-24T12:06:37;3.67;;;0.75;;
36411;SDS011;22445;52.100;5.176;2023-04-24T12:09:03;4.40;;;1.08;;
36411;SDS011;22445;52.100;5.176;2023-04-24T12:11:29;4.45;;;0.80;;
36411;SDS011;22445;52.100;5.176;2023-04-24T12:14:08;4.95;;;1.10;;
36411;SDS011;22445;52.100;5.176;2023-04-24T12:16:36;8.00;;;0.95;;
36411;SDS011;22445;52.100;5.176;2023-04-24T12:19:01;3.33;;;0.80;;
36411;SDS011;22445;52.100;5.176;2023-04-24T12:21:27;3.17;;;0.57;;
36411;SDS011;22445;52.100;5.176;2023-04-24T12:23:55;5.65;;;0.80;;
36411;SDS011;22445;52.100;5.176;2023-04-24T12:26:21;4.85;;;0.88;;
36411;SDS011;22445;52.100;5.176;2023-04-24T12:28:48;5.60;;;1.02;;
36411;SDS011;22445;52.100;5.176;2023-04-24T12:31:14;5.53;;;1.17;;
36411;SDS011;22445;52.100;5.176;2023-04-24T12:33:41;6.68;;;1.30;;
36411;SDS011;22445;52.100;5.176;2023-04-24T12:36:09;7.13;;;1.42;;
36411;SDS011;22445;52.100;5.176;2023-04-24T12:38:37;4.97;;;1.15;;
36411;SDS011;22445;52.100;5.176;2023-04-24T12:41:10;4.47;;;1.65;;
36411;SDS011;22445;52.100;5.176;2023-04-24T12:43:37;5.72;;;1.50;;
36411;SDS011;22445;52.100;5.176;2023-04-24T12:46:03;5.47;;;1.35;;
36411;SDS011;22445;52.100;5.176;2023-04-24T12:48:30;4.93;;;1.30;;
36411;SDS011;22445;52.100;5.176;2023-04-24T12:50:59;4.20;;;0.90;;
36411;SDS011;22445;52.100;5.176;2023-04-24T12:53:28;6.45;;;1.48;;
36411;SDS011;22445;52.100;5.176;2023-04-24T12:55:56;8.02;;;1.83;;
36411;SDS011;22445;52.100;5.176;2023-04-24T12:58:22;9.32;;;1.83;;
36411;SDS011;22445;52.100;5.176;2023-04-24T13:00:48;4.78;;;1.75;;
36411;SDS011;22445;52.100;5.176;2023-04-24T13:03:14;12.52;;;1.98;;
36411;SDS011;22445;52.100;5.176;2023-04-24T13:05:40;7.35;;;2.03;;
36411;SDS011;22445;52.100;5.176;2023-04-24T13:08:07;8.40;;;1.73;;
36411;SDS011;22445;52.100;5.176;2023-04-24T13:10:33;8.23;;;1.85;;
36411;SDS011;22445;52.100;5.176;2023-04-24T13:12:59;12.85;;;2.42;;
36411;SDS011;22445;52.100;5.176;2023-04-24T13:15:25;8.80;;;2.60;;
36411;SDS011;22445;52.100;5.176;2023-04-24T13:17:51;9.32;;;2.13;;
36411;SDS011;22445;52.100;5.176;2023-04-24T13:20:17;6.03;;;1.83;;
36411;SDS011;22445;52.100;5.176;2023-04-24T13:22:43;7.53;;;2.30;;
36411;SDS011;22445;52.100;5.176;2023-04-24T13:25:08;8.88;;;2.30;;
36411;SDS011;22445;52.100;5.176;2023-04-24T13:27:35;5.78;;;2.17;;
36411;SDS011;22445;52.100;5.176;2023-04-24T13:30:00;8.85;;;2.05;;
36411;SDS011;22445;52.100;5.176;2023-04-24T13:32:26;7.05;;;1.73;;
36411;SDS011;22445;52.100;5.176;2023-04-24T13:34:53;6.30;;;2.08;;
36411;SDS011;22445;52.100;5.176;2023-04-24T13:37:19;5.40;;;2.00;;
36411;SDS011;22445;52.100;5.176;2023-04-24T13:39:45;3.80;;;1.50;;
36411;SDS011;22445;52.100;5.176;2023-04-24T13:42:10;4.20;;;1.80;;
36411;SDS011;22445;52.100;5.176;2023-04-24T13:44:36;9.75;;;2.33;;
36411;SDS011;22445;52.100;5.176;2023-04-24T13:47:02;7.97;;;2.30;;
36411;SDS011;22445;52.100;5.176;2023-04-24T13:49:28;5.45;;;1.70;;
36411;SDS011;22445;52.100;5.176;2023-04-24T13:51:54;6.35;;;1.98;;
36411;SDS011;22445;52.100;5.176;2023-04-24T13:54:20;6.30;;;2.28;;
36411;SDS011;22445;52.100;5.176;2023-04-24T13:56:48;8.90;;;2.10;;
36411;SDS011;22445;52.100;5.176;2023-04-24T13:59:14;5.93;;;1.80;;
36411;SDS011;22445;52.100;5.176;2023-04-24T14:01:40;8.10;;;2.47;;
36411;SDS011;22445;52.100;5.176;2023-04-24T14:04:05;7.53;;;1.98;;
36411;SDS011;22445;52.100;5.176;2023-04-24T14:06:34;9.73;;;3.13;;
36411;SDS011;22445;52.100;5.176;2023-04-24T14:09:00;7.18;;;1.90;;
36411;SDS011;22445;52.100;5.176;2023-04-24T14:11:26;11.52;;;2.50;;
36411;SDS011;22445;52.100;5.176;2023-04-24T14:13:51;8.20;;;2.45;;
36411;SDS011;22445;52.100;5.176;2023-04-24T14:16:17;8.98;;;2.45;;
36411;SDS011;22445;52.100;5.176;2023-04-24T14:18:43;8.35;;;2.05;;
36411;SDS011;22445;52.100;5.176;2023-04-24T14:21:09;5.60;;;2.10;;
36411;SDS011;22445;52.100;5.176;2023-04-24T14:23:34;8.98;;;2.40;;
36411;SDS011;22445;52.100;5.176;2023-04-24T14:26:00;3.95;;;1.70;;
36411;SDS011;22445;52.100;5.176;2023-04-24T14:28:26;4.68;;;1.92;;
36411;SDS011;22445;52.100;5.176;2023-04-24T14:30:52;5.43;;;2.00;;
36411;SDS011;22445;52.100;5.176;2023-04-24T14:33:17;7.82;;;2.00;;
36411;SDS011;22445;52.100;5.176;2023-04-24T14:35:44;7.00;;;1.70;;
36411;SDS011;22445;52.100;5.176;2023-04-24T14:38:10;6.90;;;1.88;;
36411;SDS011;22445;52.100;5.176;2023-04-24T14:40:36;8.82;;;2.22;;
36411;SDS011;22445;52.100;5.176;2023-04-24T14:43:02;8.05;;;2.47;;
36411;SDS011;22445;52.100;5.176;2023-04-24T14:45:28;8.80;;;2.20;;
36411;SDS011;22445;52.100;5.176;2023-04-24T14:47:54;8.30;;;2.30;;
36411;SDS011;22445;52.100;5.176;2023-04-24T14:50:20;6.15;;;1.65;;